createdAt,value
2022-10-01T00:02:25.290Z,73.82
2022-10-01T00:04:52.596Z,74.22
2022-10-01T00:07:19.970Z,74.54
2022-10-01T00:09:47.284Z,74.65
2022-10-01T00:12:15.815Z,75.08
2022-10-01T00:14:44.486Z,75.04
2022-10-01T00:17:11.640Z,75.19
2022-10-01T00:19:39.107Z,75.71
2022-10-01T00:22:06.664Z,76.75
2022-10-01T00:24:33.920Z,76.49
2022-10-01T00:27:01.241Z,76.59
2022-10-01T00:29:29.024Z,76.50
2022-10-01T00:31:57.319Z,75.72
2022-10-01T00:34:28.413Z,75.37
2022-10-01T00:36:56.126Z,75.19
2022-10-01T00:39:25.742Z,75.44
2022-10-01T00:41:53.286Z,75.40
2022-10-01T00:44:36.226Z,75.56
2022-10-01T00:47:16.427Z,74.87
2022-10-01T00:49:43.938Z,74.41
2022-10-01T00:52:18.869Z,74.54
2022-10-01T00:54:53.808Z,74.88
2022-10-01T00:57:25.114Z,75.33
2022-10-01T00:59:55.157Z,75.06
2022-10-01T01:02:22.500Z,75.20
2022-10-01T01:04:50.111Z,75.80
2022-10-01T01:07:17.401Z,76.63
2022-10-01T01:09:47.440Z,77.51
2022-10-01T01:12:22.417Z,78.26
2022-10-01T01:15:15.369Z,78.73
2022-10-01T01:18:05.611Z,79.06
2022-10-01T01:20:55.522Z,78.76
2022-10-01T01:24:14.108Z,79.09
2022-10-01T01:27:08.756Z,79.34
2022-10-01T01:29:46.143Z,80.08
2022-10-01T01:32:42.887Z,79.93
2022-10-01T01:35:11.422Z,80.50
2022-10-01T01:37:42.274Z,80.88
2022-10-01T01:40:11.352Z,80.73
2022-10-01T01:42:41.775Z,80.86
2022-10-01T01:45:11.541Z,80.88
2022-10-01T01:47:41.470Z,81.51
2022-10-01T01:50:09.248Z,81.62
2022-10-01T01:52:36.537Z,81.83
2022-10-01T01:55:07.445Z,81.91
2022-10-01T01:57:38.413Z,81.74
2022-10-01T02:00:06.534Z,82.53
2022-10-01T02:02:36.254Z,81.84
2022-10-01T02:05:12.836Z,81.79
2022-10-01T02:07:54.599Z,82.83
2022-10-01T02:10:33.859Z,81.82
2022-10-01T02:13:24.041Z,82.17
2022-10-01T02:16:18.907Z,82.47
2022-10-01T02:18:53.742Z,83.33
2022-10-01T02:21:47.606Z,83.41
2022-10-01T02:24:34.789Z,82.73
2022-10-01T02:27:04.183Z,83.56
2022-10-01T02:29:32.660Z,83.58
2022-10-01T02:32:00.651Z,83.86
2022-10-01T02:34:29.741Z,83.57
2022-10-01T02:36:58.780Z,83.59
2022-10-01T02:39:27.800Z,84.63
2022-10-01T02:41:55.937Z,84.05
2022-10-01T02:44:27.482Z,84.69
2022-10-01T02:47:04.485Z,84.85
2022-10-01T02:49:31.999Z,84.83
2022-10-01T02:52:06.978Z,85.18
2022-10-01T02:54:46.054Z,84.81
2022-10-01T02:57:24.864Z,84.98
2022-10-01T02:59:52.877Z,85.41
2022-10-01T03:02:20.885Z,84.74
2022-10-01T03:04:48.604Z,85.38
2022-10-01T03:07:18.614Z,85.55
2022-10-01T03:09:45.889Z,84.90
2022-10-01T03:12:13.101Z,84.95
2022-10-01T03:14:40.310Z,85.21
2022-10-01T03:17:15.648Z,84.98
2022-10-01T03:19:44.026Z,85.19
2022-10-01T03:22:13.905Z,84.65
2022-10-01T03:24:44.093Z,84.82
2022-10-01T03:27:11.258Z,84.89
2022-10-01T03:29:38.427Z,85.20
2022-10-01T03:32:05.838Z,84.91
2022-10-01T03:34:33.062Z,84.48
2022-10-01T03:37:00.159Z,83.74
2022-10-01T03:39:28.050Z,84.48
2022-10-01T03:41:56.215Z,84.73
2022-10-01T03:44:24.958Z,85.18
2022-10-01T03:46:55.038Z,84.45
2022-10-01T03:49:24.320Z,85.35
2022-10-01T03:51:52.300Z,85.39
2022-10-01T03:54:20.295Z,84.64
2022-10-01T03:56:48.819Z,84.51
2022-10-01T03:59:16.002Z,84.62
2022-10-01T04:01:43.352Z,85.32
2022-10-01T04:04:10.806Z,85.34
2022-10-01T04:06:38.083Z,85.54
2022-10-01T04:09:05.217Z,85.54
2022-10-01T04:11:32.718Z,85.58
2022-10-01T04:14:00.137Z,85.75
2022-10-01T04:16:27.387Z,85.65
2022-10-01T04:18:54.671Z,85.45
2022-10-01T04:21:21.803Z,85.37
2022-10-01T04:23:50.323Z,85.41
2022-10-01T04:26:19.062Z,85.27
2022-10-01T04:28:46.941Z,85.77
2022-10-01T04:31:27.122Z,85.12
2022-10-01T04:33:57.070Z,85.64
2022-10-01T04:36:24.992Z,85.80
2022-10-01T04:38:56.664Z,85.76
2022-10-01T04:41:26.765Z,85.89
2022-10-01T04:43:53.942Z,85.66
2022-10-01T04:46:21.167Z,85.83
2022-10-01T04:48:49.442Z,86.43
2022-10-01T04:51:17.183Z,85.40
2022-10-01T04:53:44.479Z,86.12
2022-10-01T04:56:11.692Z,85.94
2022-10-01T04:58:39.360Z,86.11
2022-10-01T05:01:06.653Z,86.10
2022-10-01T05:03:34.586Z,86.41
2022-10-01T05:06:01.887Z,86.38
2022-10-01T05:08:29.307Z,86.25
2022-10-01T05:10:59.697Z,85.84
2022-10-01T05:13:30.058Z,86.20
2022-10-01T05:15:58.998Z,86.62
2022-10-01T05:18:26.258Z,86.27
2022-10-01T05:20:53.734Z,86.49
2022-10-01T05:23:24.382Z,86.55
2022-10-01T05:25:51.615Z,85.70
2022-10-01T05:28:22.383Z,86.04
2022-10-01T05:30:54.214Z,86.60
2022-10-01T05:33:35.407Z,86.34
2022-10-01T05:36:06.753Z,86.96
2022-10-01T05:38:37.103Z,86.37
2022-10-01T05:41:04.855Z,85.80
2022-10-01T05:43:32.528Z,86.19
2022-10-01T05:46:01.886Z,86.44
2022-10-01T05:48:29.558Z,86.47
2022-10-01T05:51:00.490Z,86.37
2022-10-01T05:53:27.842Z,86.63
2022-10-01T05:55:55.205Z,86.83
2022-10-01T05:58:22.373Z,86.83
2022-10-01T06:00:49.746Z,86.31
2022-10-01T06:03:17.187Z,86.62
2022-10-01T06:05:44.957Z,86.63
2022-10-01T06:08:12.291Z,86.12
2022-10-01T06:10:39.897Z,86.33
2022-10-01T06:13:07.536Z,86.39
2022-10-01T06:15:39.295Z,86.06
2022-10-01T06:18:15.466Z,86.26
2022-10-01T06:20:42.729Z,86.61
2022-10-01T06:23:12.562Z,86.24
2022-10-01T06:25:41.923Z,85.79
2022-10-01T06:28:11.762Z,86.02
2022-10-01T06:30:40.082Z,85.70
2022-10-01T06:33:09.601Z,86.23
2022-10-01T06:35:42.115Z,85.89
2022-10-01T06:38:16.409Z,85.89
2022-10-01T06:40:43.771Z,86.05
2022-10-01T06:43:10.950Z,85.80
2022-10-01T06:45:40.689Z,85.76
2022-10-01T06:48:08.875Z,85.20
2022-10-01T06:50:36.060Z,85.28
2022-10-01T06:53:03.459Z,85.46
2022-10-01T06:55:33.294Z,85.78
2022-10-01T06:58:15.918Z,85.54
2022-10-01T07:00:44.167Z,85.18
2022-10-01T07:03:17.283Z,85.70
2022-10-01T07:05:45.012Z,85.76
2022-10-01T07:08:13.349Z,85.89
2022-10-01T07:10:41.374Z,85.73
2022-10-01T07:13:20.334Z,85.41
2022-10-01T07:15:47.854Z,85.04
2022-10-01T07:18:16.989Z,85.48
2022-10-01T07:20:44.463Z,85.43
2022-10-01T07:23:13.162Z,85.08
2022-10-01T07:25:40.981Z,85.55
2022-10-01T07:28:24.032Z,85.66
2022-10-01T07:31:00.698Z,85.30
2022-10-01T07:33:28.216Z,85.29
2022-10-01T07:35:55.514Z,85.23
2022-10-01T07:38:22.667Z,85.04
2022-10-01T07:40:54.607Z,84.70
2022-10-01T07:43:22.588Z,85.14
2022-10-01T07:45:50.117Z,84.66
2022-10-01T07:48:17.506Z,84.85
2022-10-01T07:50:45.711Z,85.12
2022-10-01T07:53:13.338Z,84.91
2022-10-01T07:55:40.614Z,84.52
2022-10-01T07:58:07.947Z,84.45
2022-10-01T08:00:35.432Z,84.08
2022-10-01T08:03:02.721Z,84.04
2022-10-01T08:05:34.725Z,83.77
2022-10-01T08:08:08.486Z,83.79
2022-10-01T08:10:37.595Z,83.88
2022-10-01T08:13:16.207Z,83.80
2022-10-01T08:15:56.906Z,83.64
2022-10-01T08:18:24.266Z,83.51
2022-10-01T08:20:52.490Z,83.54
2022-10-01T08:23:19.650Z,83.34
2022-10-01T08:25:48.010Z,83.39
2022-10-01T08:28:16.598Z,83.61
2022-10-01T08:30:44.136Z,83.36
2022-10-01T08:33:12.334Z,83.63
2022-10-01T08:35:40.494Z,83.45
2022-10-01T08:38:07.689Z,83.18
2022-10-01T08:40:38.219Z,82.48
2022-10-01T08:43:36.494Z,82.49
2022-10-01T08:46:14.138Z,82.83
2022-10-01T08:49:15.443Z,82.98
2022-10-01T08:51:51.045Z,83.27
2022-10-01T08:54:20.999Z,83.30
2022-10-01T08:56:55.599Z,82.98
2022-10-01T08:59:29.980Z,82.58
2022-10-01T09:01:59.082Z,81.75
2022-10-01T09:04:27.365Z,81.65
2022-10-01T09:07:01.887Z,81.60
2022-10-01T09:09:59.530Z,81.23
2022-10-01T09:13:07.854Z,80.46
2022-10-01T09:16:03.252Z,80.27
2022-10-01T09:19:06.253Z,79.28
2022-10-01T09:21:41.790Z,79.45
2022-10-01T09:24:17.426Z,78.83
2022-10-01T09:26:48.902Z,78.07
2022-10-01T09:29:28.393Z,77.61
2022-10-01T09:31:56.869Z,77.12
2022-10-01T09:34:33.041Z,76.93
2022-10-01T09:37:20.520Z,76.66
2022-10-01T09:40:13.041Z,76.75
2022-10-01T09:42:40.306Z,76.30
2022-10-01T09:45:12.110Z,77.09
2022-10-01T09:47:43.786Z,76.38
2022-10-01T09:50:28.016Z,75.54
2022-10-01T09:52:58.477Z,75.57
2022-10-01T09:55:34.852Z,75.89
2022-10-01T09:58:07.362Z,76.06
2022-10-01T10:00:36.943Z,75.76
2022-10-01T10:03:04.855Z,75.74
2022-10-01T10:05:46.680Z,76.34
2022-10-01T10:08:36.569Z,77.28
2022-10-01T10:11:06.854Z,77.64
2022-10-01T10:13:41.702Z,78.01
2022-10-01T10:16:27.673Z,79.67
2022-10-01T10:19:11.412Z,80.49
2022-10-01T10:21:39.535Z,81.42
2022-10-01T10:24:26.477Z,83.07
2022-10-01T10:26:56.580Z,84.14
2022-10-01T10:29:32.442Z,85.60
2022-10-01T10:32:04.557Z,85.68
2022-10-01T10:34:41.614Z,86.50
2022-10-01T10:37:17.226Z,86.23
2022-10-01T10:39:46.754Z,87.59
2022-10-01T10:42:19.038Z,88.66
2022-10-01T10:44:49.338Z,89.63
2022-10-01T10:47:19.805Z,90.33
2022-10-01T10:50:00.184Z,90.85
2022-10-01T10:52:36.253Z,91.34
2022-10-01T10:55:25.281Z,92.96
2022-10-01T10:57:57.274Z,93.26
2022-10-01T11:00:26.327Z,94.47
2022-10-01T11:03:05.317Z,95.70
2022-10-01T11:05:34.140Z,95.80
2022-10-01T11:08:04.678Z,96.21
2022-10-01T11:10:44.087Z,96.06
2022-10-01T11:13:32.225Z,95.90
2022-10-01T11:16:53.030Z,97.98
2022-10-01T11:19:31.773Z,97.15
2022-10-01T11:22:33.336Z,99.43
2022-10-01T11:25:32.592Z,99.90
2022-10-01T11:28:07.177Z,100.00
2022-10-01T11:30:42.018Z,100.00
2022-10-01T11:33:21.455Z,100.00
2022-10-01T11:36:11.182Z,100.00
2022-10-01T11:38:48.696Z,100.00
2022-10-01T11:41:39.576Z,100.00
2022-10-01T11:44:30.684Z,100.00
2022-10-01T11:47:12.043Z,100.00
2022-10-01T11:50:03.179Z,100.00
2022-10-01T11:52:54.245Z,100.00
2022-10-01T11:55:42.893Z,100.00
2022-10-01T11:58:51.235Z,100.00
2022-10-01T12:01:28.437Z,100.00
2022-10-01T12:04:04.374Z,100.00
2022-10-01T12:06:46.214Z,100.00
2022-10-01T12:09:48.677Z,100.00
2022-10-01T12:12:27.697Z,100.00
2022-10-01T12:15:29.051Z,100.00
2022-10-01T12:18:46.269Z,100.00
2022-10-01T12:21:35.472Z,100.00
2022-10-01T12:24:14.011Z,100.00
2022-10-01T12:26:50.609Z,100.00
2022-10-01T12:29:59.530Z,100.00
2022-10-01T12:32:35.612Z,100.00
2022-10-01T12:35:27.975Z,100.00
2022-10-01T12:38:28.679Z,100.00
2022-10-01T12:41:09.953Z,100.00
2022-10-01T12:44:01.468Z,100.00
2022-10-01T12:46:35.089Z,100.00
2022-10-01T12:49:22.529Z,100.00
2022-10-01T12:52:00.401Z,100.00
2022-10-01T12:55:05.375Z,100.00
2022-10-01T12:57:53.979Z,100.00
2022-10-01T13:00:25.870Z,100.00
2022-10-01T13:03:15.392Z,100.00
2022-10-01T13:06:03.053Z,100.00
2022-10-01T13:08:54.229Z,100.00
2022-10-01T13:11:58.264Z,100.00
2022-10-01T13:14:25.554Z,100.00
2022-10-01T13:17:03.495Z,100.00
2022-10-01T13:20:05.846Z,100.00
2022-10-01T13:22:55.520Z,100.00
2022-10-01T13:26:00.354Z,100.00
2022-10-01T13:28:46.119Z,100.00
2022-10-01T13:31:15.657Z,100.00
2022-10-01T13:33:54.204Z,100.00
2022-10-01T13:36:32.898Z,100.00
2022-10-01T13:39:00.818Z,100.00
2022-10-01T13:41:33.477Z,100.00
2022-10-01T13:47:19.788Z,100.00
2022-10-01T13:49:55.575Z,100.00
2022-10-01T13:52:23.573Z,100.00
2022-10-01T13:54:53.983Z,100.00
2022-10-01T13:57:27.075Z,100.00
2022-10-01T14:00:17.528Z,100.00
2022-10-01T14:03:21.642Z,100.00
2022-10-01T14:05:54.252Z,100.00
2022-10-01T14:08:33.062Z,100.00
2022-10-01T14:11:29.423Z,100.00
2022-10-01T14:14:20.697Z,100.00
2022-10-01T14:16:50.419Z,100.00
2022-10-01T14:19:21.567Z,100.00
2022-10-01T14:22:19.760Z,100.00
2022-10-01T14:24:57.746Z,100.00
2022-10-01T14:27:38.706Z,100.00
2022-10-01T14:30:13.866Z,100.00
2022-10-01T14:33:20.551Z,100.00
2022-10-01T14:36:13.645Z,100.00
2022-10-01T14:38:40.803Z,100.00
2022-10-01T14:41:23.248Z,100.00
2022-10-01T14:43:52.952Z,100.00
2022-10-01T14:46:22.211Z,100.00
2022-10-01T14:49:00.744Z,100.00
2022-10-01T14:51:31.325Z,100.00
2022-10-01T14:53:59.897Z,100.00
2022-10-01T14:56:28.286Z,100.00
2022-10-01T14:59:09.855Z,100.00
2022-10-01T15:01:38.467Z,100.00
2022-10-01T15:04:24.006Z,100.00
2022-10-01T15:06:55.970Z,100.00
2022-10-01T15:09:23.317Z,100.00
2022-10-01T15:11:53.664Z,100.00
2022-10-01T15:14:24.899Z,100.00
2022-10-01T15:17:06.770Z,100.00
2022-10-01T15:19:44.081Z,100.00
2022-10-01T15:22:13.023Z,100.00
2022-10-01T15:24:45.065Z,100.00
2022-10-01T15:27:29.089Z,100.00
2022-10-01T15:30:01.287Z,100.00
2022-10-01T15:32:28.662Z,100.00
2022-10-01T15:35:03.507Z,100.00
2022-10-01T15:37:49.437Z,100.00
2022-10-01T15:40:36.680Z,100.00
2022-10-01T15:43:28.057Z,100.00
2022-10-01T15:46:11.629Z,100.00
2022-10-01T15:48:39.317Z,100.00
2022-10-01T15:51:28.457Z,100.00
2022-10-01T15:54:03.491Z,100.00
2022-10-01T15:56:35.493Z,100.00
2022-10-01T15:59:13.326Z,100.00
2022-10-01T16:01:41.304Z,100.00
2022-10-01T16:04:13.625Z,100.00
2022-10-01T16:06:45.355Z,100.00
2022-10-01T16:09:21.612Z,100.00
2022-10-01T16:11:52.304Z,100.00
2022-10-01T16:14:22.053Z,100.00
2022-10-01T16:16:52.110Z,100.00
2022-10-01T16:19:24.590Z,100.00
2022-10-01T16:22:14.633Z,100.00
2022-10-01T16:24:47.368Z,100.00
2022-10-01T16:27:26.280Z,100.00
2022-10-01T16:30:19.224Z,100.00
2022-10-01T16:32:46.556Z,100.00
2022-10-01T16:35:22.572Z,100.00
2022-10-01T16:37:53.405Z,100.00
2022-10-01T16:40:25.444Z,100.00
2022-10-01T16:42:59.054Z,100.00
2022-10-01T16:45:31.749Z,100.00
2022-10-01T16:48:03.074Z,100.00
2022-10-01T16:50:30.359Z,100.00
2022-10-01T16:53:01.246Z,100.00
2022-10-01T16:55:32.496Z,100.00
2022-10-01T16:58:02.170Z,100.00
2022-10-01T17:00:29.906Z,100.00
2022-10-01T17:02:57.812Z,100.00
2022-10-01T17:05:31.650Z,100.00
2022-10-01T17:08:01.043Z,100.00
2022-10-01T17:10:33.283Z,100.00
2022-10-01T17:13:02.013Z,100.00
2022-10-01T17:15:29.470Z,100.00
2022-10-01T17:17:59.243Z,100.00
2022-10-01T17:20:30.915Z,100.00
2022-10-01T17:22:59.098Z,100.00
2022-10-01T17:25:34.223Z,100.00
2022-10-01T17:28:03.569Z,100.00
2022-10-01T17:30:43.144Z,100.00
2022-10-01T17:33:13.052Z,100.00
2022-10-01T17:35:45.766Z,100.00
2022-10-01T17:38:21.177Z,100.00
2022-10-01T17:40:56.648Z,100.00
2022-10-01T17:43:29.948Z,100.00
2022-10-01T17:45:59.525Z,100.00
2022-10-01T17:48:28.307Z,100.00
2022-10-01T17:51:08.697Z,100.00
2022-10-01T17:53:42.073Z,100.00
2022-10-01T17:56:14.542Z,100.00
2022-10-01T17:58:45.328Z,100.00
2022-10-01T18:01:20.171Z,100.00
2022-10-01T18:03:55.775Z,100.00
2022-10-01T18:06:26.613Z,100.00
2022-10-01T18:08:56.307Z,100.00
2022-10-01T18:11:36.926Z,100.00
2022-10-01T18:14:12.289Z,100.00
2022-10-01T18:16:46.389Z,100.00
2022-10-01T18:22:01.762Z,100.00
2022-10-01T18:24:29.829Z,100.00
2022-10-01T18:27:00.071Z,100.00
2022-10-01T18:29:32.790Z,100.00
2022-10-01T18:32:42.079Z,100.00
2022-10-01T18:35:40.702Z,100.00
2022-10-01T18:38:39.396Z,100.00
2022-10-01T18:41:19.290Z,100.00
2022-10-01T18:43:51.383Z,100.00
2022-10-01T18:46:25.128Z,100.00
2022-10-01T18:49:16.700Z,100.00
2022-10-01T18:52:24.227Z,100.00
2022-10-01T18:55:06.764Z,100.00
2022-10-01T18:57:58.749Z,100.00
2022-10-01T19:00:33.449Z,100.00
2022-10-01T19:03:16.967Z,100.00
2022-10-01T19:06:23.175Z,100.00
2022-10-01T19:09:23.780Z,100.00
2022-10-01T19:12:29.110Z,100.00
2022-10-01T19:15:38.158Z,100.00
2022-10-01T19:18:12.317Z,100.00
2022-10-01T19:21:00.117Z,100.00
2022-10-01T19:23:55.609Z,100.00
2022-10-01T19:26:45.036Z,100.00
2022-10-01T19:29:29.206Z,100.00
2022-10-01T19:32:04.531Z,100.00
2022-10-01T19:35:12.718Z,100.00
2022-10-01T19:37:48.071Z,100.00
2022-10-01T19:40:32.269Z,100.00
2022-10-01T19:43:13.700Z,100.00
2022-10-01T19:45:56.730Z,100.00
2022-10-01T19:48:37.509Z,100.00
2022-10-01T19:51:08.280Z,100.00
2022-10-01T19:53:37.468Z,100.00
2022-10-01T19:56:09.808Z,100.00
2022-10-01T19:58:44.624Z,100.00
2022-10-01T20:01:43.172Z,100.00
2022-10-01T20:04:11.669Z,100.00
2022-10-01T20:06:45.674Z,100.00
2022-10-01T20:09:28.331Z,100.00
2022-10-01T20:12:02.752Z,100.00
2022-10-01T20:15:09.413Z,100.00
2022-10-01T20:18:01.863Z,100.00
2022-10-01T20:20:59.033Z,100.00
2022-10-01T20:23:39.233Z,100.00
2022-10-01T20:26:48.387Z,100.00
2022-10-01T20:29:21.332Z,100.00
2022-10-01T20:32:06.376Z,100.00
2022-10-01T20:34:43.581Z,100.00
2022-10-01T20:37:43.367Z,100.00
2022-10-01T20:40:13.433Z,100.00
2022-10-01T20:42:49.329Z,100.00
2022-10-01T20:45:29.419Z,100.00
2022-10-01T20:48:34.869Z,100.00
2022-10-01T20:51:42.849Z,100.00
2022-10-01T20:54:14.605Z,100.00
2022-10-01T20:56:55.532Z,100.00
2022-10-01T20:59:53.092Z,100.00
2022-10-01T21:02:35.727Z,100.00
2022-10-01T21:05:11.691Z,100.00
2022-10-01T21:07:53.608Z,100.00
2022-10-01T21:10:47.699Z,100.00
2022-10-01T21:13:30.428Z,100.00
2022-10-01T21:16:16.112Z,100.00
2022-10-01T21:19:20.823Z,100.00
2022-10-01T21:22:09.862Z,100.00
2022-10-01T21:24:44.284Z,100.00
2022-10-01T21:27:32.037Z,100.00
2022-10-01T21:30:18.578Z,100.00
2022-10-01T21:33:15.117Z,100.00
2022-10-01T21:35:50.997Z,100.00
2022-10-01T21:38:39.938Z,100.00
2022-10-01T21:41:16.486Z,100.00
2022-10-01T21:43:56.594Z,100.00
2022-10-01T21:46:40.947Z,100.00
2022-10-01T21:49:35.555Z,100.00
2022-10-01T21:52:24.092Z,100.00
2022-10-01T21:55:12.590Z,100.00
2022-10-01T21:57:56.497Z,100.00
2022-10-01T22:00:26.777Z,100.00
2022-10-01T22:03:00.596Z,100.00
2022-10-01T22:05:50.336Z,100.00
2022-10-01T22:08:46.091Z,100.00
2022-10-01T22:11:26.538Z,100.00
2022-10-01T22:14:17.835Z,100.00
2022-10-01T22:16:51.843Z,100.00
2022-10-01T22:19:31.397Z,100.00
2022-10-01T22:22:06.625Z,100.00
2022-10-01T22:24:49.380Z,100.00
2022-10-01T22:27:21.355Z,100.00
2022-10-01T22:29:56.629Z,100.00
2022-10-01T22:32:26.482Z,100.00
2022-10-01T22:35:01.582Z,100.00
2022-10-01T22:37:37.938Z,100.00
2022-10-01T22:40:42.863Z,100.00
2022-10-01T22:43:11.732Z,100.00
2022-10-01T22:45:55.379Z,100.00
2022-10-01T22:48:42.770Z,100.00
2022-10-01T22:51:30.594Z,100.00
2022-10-01T22:54:01.217Z,100.00
2022-10-01T22:56:37.811Z,100.00
2022-10-01T22:59:19.685Z,100.00
2022-10-01T23:02:00.393Z,100.00
2022-10-01T23:04:34.720Z,100.00
2022-10-01T23:07:17.958Z,100.00
2022-10-01T23:09:58.075Z,100.00
2022-10-01T23:12:35.416Z,100.00
2022-10-01T23:15:30.793Z,100.00
2022-10-01T23:18:02.236Z,100.00
2022-10-01T23:20:59.069Z,100.00
2022-10-01T23:23:32.146Z,100.00
2022-10-01T23:26:05.513Z,100.00
2022-10-01T23:28:58.963Z,100.00
2022-10-01T23:31:51.740Z,100.00
2022-10-01T23:34:34.919Z,100.00
2022-10-01T23:37:05.056Z,100.00
2022-10-01T23:39:44.809Z,100.00
2022-10-01T23:42:37.936Z,100.00
2022-10-01T23:45:32.836Z,100.00
2022-10-01T23:48:12.175Z,100.00
2022-10-01T23:50:53.537Z,100.00
2022-10-01T23:53:28.307Z,100.00
2022-10-01T23:56:28.192Z,100.00
2022-10-01T23:59:21.707Z,100.00
